Time;durP1;ratioP1;P1;durP2;ratioP2;P2;SDS_P1;SDS_P2;PMS_P1;PMS_P2;Temp;Humidity;BMP_temperature;BMP_pressure;BME280_temperature;BME280_humidity;BME280_pressure;Samples;Min_cycle;Max_cycle;Signal;HPM_P1;HPM_P2
2023/05/12 00:00:36;;;;;;;24.50;19.50;;;12.90;99.90;;;;;;7319849;32;20610;-58
2023/05/12 00:04:39;;;;;;;22.60;18.50;;;13.00;99.90;;;;;;7326813;32;20514;-57
2023/05/12 00:08:41;;;;;;;25.17;19.00;;;13.00;99.90;;;;;;7309961;32;20459;-57
2023/05/12 00:12:43;;;;;;;26.20;18.00;;;13.00;99.90;;;;;;7310376;32;22005;-57
2023/05/12 00:16:50;;;;;;;27.77;19.23;;;13.00;99.90;;;;;;7318246;32;20210;-59
2023/05/12 00:20:53;;;;;;;29.98;19.35;;;13.00;99.90;;;;;;7315116;32;21296;-58
2023/05/12 00:24:54;;;;;;;26.35;19.90;;;13.00;99.90;;;;;;7316043;32;20596;-58
2023/05/12 00:28:56;;;;;;;26.42;19.33;;;13.00;99.90;;;;;;7322236;32;20253;-57
2023/05/12 00:32:58;;;;;;;25.98;19.20;;;13.00;99.90;;;;;;7319244;32;20217;-57
2023/05/12 00:36:59;;;;;;;29.85;20.95;;;12.90;99.90;;;;;;7321110;32;20254;-57
2023/05/12 00:41:01;;;;;;;29.83;20.05;;;12.90;99.90;;;;;;7324203;32;20287;-57
2023/05/12 00:45:04;;;;;;;29.30;20.30;;;12.90;99.90;;;;;;7328842;32;20157;-57
2023/05/12 00:49:06;;;;;;;22.48;16.62;;;13.00;99.90;;;;;;7322620;32;20152;-57
2023/05/12 00:53:08;;;;;;;23.00;16.70;;;12.90;99.90;;;;;;7333121;32;20142;-58
2023/05/12 00:57:11;;;;;;;14.77;11.65;;;12.90;99.90;;;;;;7324220;32;20157;-58
2023/05/12 01:01:12;;;;;;;16.35;13.27;;;12.90;99.90;;;;;;7324710;32;20826;-57
2023/05/12 01:05:14;;;;;;;11.77;9.43;;;12.80;99.90;;;;;;7324288;32;20191;-57
2023/05/12 01:09:16;;;;;;;8.80;6.60;;;12.90;99.90;;;;;;7320550;32;20616;-57
2023/05/12 01:13:18;;;;;;;6.47;5.82;;;12.80;99.90;;;;;;7329830;32;20660;-57
2023/05/12 01:17:26;;;;;;;7.35;6.05;;;12.70;99.90;;;;;;7332916;32;20576;-57
2023/05/12 01:21:28;;;;;;;9.35;6.20;;;12.70;99.90;;;;;;7337304;32;20134;-57
2023/05/12 01:25:32;;;;;;;7.35;5.78;;;12.80;99.90;;;;;;7328182;32;20257;-57
2023/05/12 01:29:34;;;;;;;7.12;6.28;;;12.70;99.90;;;;;;7329216;32;20103;-57
2023/05/12 01:33:36;;;;;;;8.25;6.07;;;12.80;99.90;;;;;;7340401;32;20145;-58
2023/05/12 01:37:38;;;;;;;6.35;5.72;;;12.70;99.90;;;;;;7332562;32;20135;-57
2023/05/12 01:41:40;;;;;;;6.65;5.95;;;12.70;99.90;;;;;;7328357;32;20393;-56
2023/05/12 01:45:41;;;;;;;8.45;6.15;;;12.70;99.90;;;;;;7328514;32;20513;-57
2023/05/12 01:49:44;;;;;;;7.50;6.28;;;12.70;99.90;;;;;;7335557;32;20509;-57
2023/05/12 01:53:46;;;;;;;9.57;6.37;;;12.60;99.90;;;;;;7328995;32;20530;-57
2023/05/12 01:57:47;;;;;;;8.50;5.85;;;12.70;99.90;;;;;;7331588;32;20282;-57
2023/05/12 02:01:49;;;;;;;9.50;6.25;;;12.70;99.90;;;;;;7331297;32;20948;-57
2023/05/12 02:05:51;;;;;;;7.22;4.68;;;12.70;99.90;;;;;;7330979;32;20167;-57
2023/05/12 02:09:52;;;;;;;5.25;3.85;;;12.70;99.90;;;;;;7310452;32;20164;-57
2023/05/12 02:13:55;;;;;;;5.25;3.72;;;12.60;99.90;;;;;;7323186;32;20205;-57
2023/05/12 02:17:57;;;;;;;4.78;3.20;;;12.60;99.90;;;;;;7330242;32;20104;-57
2023/05/12 02:21:59;;;;;;;6.20;3.30;;;12.60;99.90;;;;;;7335971;32;20166;-57
2023/05/12 02:26:00;;;;;;;3.20;2.53;;;12.50;99.90;;;;;;7326674;32;20318;-57
2023/05/12 02:30:03;;;;;;;3.70;3.28;;;12.50;99.90;;;;;;7333245;32;20548;-57
2023/05/12 02:34:05;;;;;;;4.07;2.80;;;12.50;99.90;;;;;;7333272;32;20238;-57
2023/05/12 02:38:07;;;;;;;4.15;3.05;;;12.40;99.90;;;;;;7331596;32;20535;-57
2023/05/12 02:42:09;;;;;;;5.00;2.92;;;12.50;99.90;;;;;;7328298;32;20601;-57
2023/05/12 02:46:11;;;;;;;3.97;3.10;;;12.50;99.90;;;;;;7330861;32;20135;-57
2023/05/12 02:50:13;;;;;;;4.80;3.37;;;12.60;99.90;;;;;;7331801;32;20104;-57
2023/05/12 02:54:15;;;;;;;4.05;2.90;;;12.50;99.90;;;;;;7332417;32;20123;-57
2023/05/12 02:58:16;;;;;;;3.78;3.10;;;12.50;99.90;;;;;;7331684;32;20214;-58
2023/05/12 03:02:18;;;;;;;5.32;3.37;;;12.50;99.90;;;;;;7332093;32;20154;-57
2023/05/12 03:06:20;;;;;;;4.30;3.58;;;12.50;99.90;;;;;;7330406;32;20111;-57
2023/05/12 03:10:22;;;;;;;4.20;3.75;;;12.50;99.90;;;;;;7314772;32;20116;-57
2023/05/12 03:14:25;;;;;;;4.57;4.07;;;12.40;99.90;;;;;;7327937;32;20107;-57
2023/05/12 03:18:30;;;;;;;5.93;5.32;;;12.40;99.90;;;;;;7332412;32;20173;-57
2023/05/12 03:22:32;;;;;;;8.30;7.12;;;12.50;99.90;;;;;;7334477;32;20131;-57
2023/05/12 03:26:34;;;;;;;12.25;8.68;;;12.50;99.90;;;;;;7328555;32;20422;-57
2023/05/12 03:30:36;;;;;;;10.93;8.35;;;12.50;99.90;;;;;;7332849;32;20164;-57
2023/05/12 03:34:38;;;;;;;11.65;8.65;;;12.60;99.90;;;;;;7329339;32;20111;-57
2023/05/12 03:38:39;;;;;;;10.35;8.38;;;12.60;99.90;;;;;;7332646;32;20183;-57
2023/05/12 03:42:41;;;;;;;14.65;9.38;;;12.50;99.90;;;;;;7332498;32;20396;-57
2023/05/12 03:46:43;;;;;;;10.20;8.00;;;12.40;99.90;;;;;;7330720;32;20221;-57
2023/05/12 03:50:44;;;;;;;12.80;7.22;;;12.30;99.90;;;;;;7337431;32;20355;-57
2023/05/12 03:54:46;;;;;;;14.63;8.38;;;12.20;99.90;;;;;;7326425;32;20183;-57
2023/05/12 03:58:48;;;;;;;13.45;8.55;;;12.20;99.90;;;;;;7327595;32;20139;-57
2023/05/12 04:02:50;;;;;;;12.18;8.00;;;12.20;99.90;;;;;;7327468;32;20171;-57
2023/05/12 04:06:52;;;;;;;11.68;7.65;;;12.20;99.90;;;;;;7328972;32;20222;-57
2023/05/12 04:10:55;;;;;;;11.77;7.55;;;12.10;99.90;;;;;;7330438;32;20137;-57
2023/05/12 04:14:56;;;;;;;8.38;6.07;;;12.20;99.90;;;;;;7331004;32;20135;-57
2023/05/12 04:18:58;;;;;;;7.78;6.22;;;12.10;99.90;;;;;;7326410;32;20955;-57
2023/05/12 04:23:00;;;;;;;7.22;6.03;;;12.10;99.90;;;;;;7328810;32;20130;-57
2023/05/12 04:27:01;;;;;;;12.32;6.60;;;12.10;99.90;;;;;;7328849;32;20223;-57
2023/05/12 04:31:03;;;;;;;8.68;6.55;;;12.10;99.90;;;;;;7333614;32;20123;-57
2023/05/12 04:35:05;;;;;;;11.20;6.68;;;12.10;99.90;;;;;;7339569;32;20131;-57
2023/05/12 04:39:08;;;;;;;8.32;6.75;;;12.10;99.90;;;;;;7334557;32;20106;-57
2023/05/12 04:43:10;;;;;;;8.88;6.18;;;12.10;99.90;;;;;;7327301;32;20196;-58
2023/05/12 04:47:31;;;;;;;7.97;5.32;;;12.10;99.90;;;;;;7329660;32;20135;-59
2023/05/12 04:51:33;;;;;;;7.50;5.32;;;12.00;99.90;;;;;;7337760;32;20135;-58
2023/05/12 04:55:35;;;;;;;5.90;4.57;;;11.90;99.90;;;;;;7332177;32;20228;-58
2023/05/12 04:59:37;;;;;;;6.75;3.97;;;11.90;99.90;;;;;;7335810;32;20146;-59
2023/05/12 05:03:42;;;;;;;7.28;4.00;;;12.00;99.90;;;;;;7333268;32;20096;-59
2023/05/12 05:07:43;;;;;;;6.78;3.90;;;12.10;99.90;;;;;;7334001;32;20108;-58
2023/05/12 05:11:46;;;;;;;4.32;3.67;;;12.10;99.90;;;;;;7331582;32;20205;-58
2023/05/12 05:15:54;;;;;;;4.87;4.03;;;12.10;99.90;;;;;;7335603;32;20191;-58
2023/05/12 05:19:55;;;;;;;4.10;3.30;;;12.10;99.90;;;;;;7325085;32;20210;-59
2023/05/12 05:24:00;;;;;;;7.28;3.47;;;12.20;99.90;;;;;;7308365;32;20131;-58
2023/05/12 05:28:02;;;;;;;3.78;3.30;;;12.20;99.90;;;;;;7318867;32;20436;-59
2023/05/12 05:32:04;;;;;;;6.47;3.55;;;12.30;99.90;;;;;;7317155;32;20615;-59
2023/05/12 05:36:06;;;;;;;4.47;3.25;;;12.30;99.90;;;;;;7317162;32;20238;-58
2023/05/12 05:40:08;;;;;;;6.05;3.40;;;12.30;99.90;;;;;;7317674;32;20130;-59
2023/05/12 05:44:10;;;;;;;4.65;3.60;;;12.30;99.90;;;;;;7324218;32;20103;-58
2023/05/12 05:48:12;;;;;;;9.05;6.87;;;12.30;99.90;;;;;;7318042;32;20190;-58
2023/05/12 05:52:14;;;;;;;5.65;3.55;;;12.40;99.90;;;;;;7321599;32;20287;-58
2023/05/12 05:56:16;;;;;;;3.55;3.25;;;12.30;99.90;;;;;;7317261;32;20298;-58
2023/05/12 06:00:18;;;;;;;4.22;3.37;;;12.40;99.90;;;;;;7323017;32;20186;-58
2023/05/12 06:04:20;;;;;;;3.62;2.92;;;12.60;99.90;;;;;;7327806;32;20190;-58
2023/05/12 06:08:22;;;;;;;3.95;2.83;;;12.60;99.90;;;;;;7331239;32;20236;-58
2023/05/12 06:12:23;;;;;;;4.25;3.35;;;12.70;99.90;;;;;;7330025;32;20379;-58
2023/05/12 06:16:25;;;;;;;5.18;3.40;;;12.70;99.90;;;;;;7324453;32;20313;-58
2023/05/12 06:20:27;;;;;;;4.95;3.85;;;12.80;99.90;;;;;;7333182;32;20288;-58
2023/05/12 06:24:28;;;;;;;5.45;3.65;;;12.80;99.90;;;;;;7332402;32;20732;-59
2023/05/12 06:28:30;;;;;;;9.10;3.90;;;12.50;99.90;;;;;;7321668;32;20233;-58
2023/05/12 06:32:32;;;;;;;6.50;4.25;;;12.60;99.90;;;;;;7330282;32;20323;-58
2023/05/12 06:36:34;;;;;;;5.22;3.92;;;12.60;99.90;;;;;;7323107;32;20254;-57
2023/05/12 06:40:35;;;;;;;6.32;3.83;;;12.70;99.90;;;;;;7318929;32;20250;-58
2023/05/12 06:44:37;;;;;;;8.05;4.10;;;12.60;99.90;;;;;;7323225;32;20594;-58
2023/05/12 06:48:42;;;;;;;5.75;4.50;;;12.70;99.90;;;;;;7323120;32;20189;-58
2023/05/12 06:52:44;;;;;;;5.57;4.62;;;12.70;99.90;;;;;;7331423;32;20186;-59
2023/05/12 06:56:46;;;;;;;5.72;3.85;;;12.80;99.90;;;;;;7331969;32;20202;-59
2023/05/12 07:00:47;;;;;;;4.45;3.87;;;12.90;99.90;;;;;;7325776;32;20237;-59
2023/05/12 07:04:49;;;;;;;5.62;4.30;;;13.10;99.90;;;;;;7326397;32;20347;-58
2023/05/12 07:08:51;;;;;;;8.35;4.00;;;13.20;99.90;;;;;;7329903;32;20576;-58
2023/05/12 07:12:52;;;;;;;8.98;3.60;;;13.10;99.90;;;;;;7318160;32;20122;-58
2023/05/12 07:16:54;;;;;;;8.25;4.12;;;13.10;99.90;;;;;;7334718;32;20129;-58
2023/05/12 07:20:56;;;;;;;4.95;3.33;;;13.00;99.90;;;;;;7326784;32;20351;-58
2023/05/12 07:24:57;;;;;;;5.82;3.75;;;13.10;99.90;;;;;;7324539;32;20127;-59
2023/05/12 07:29:00;;;;;;;5.80;3.15;;;13.20;99.90;;;;;;7330274;32;20668;-58
2023/05/12 07:33:02;;;;;;;5.03;3.60;;;13.10;99.90;;;;;;7327930;32;20171;-58
2023/05/12 07:37:05;;;;;;;4.55;4.12;;;13.30;99.90;;;;;;7342142;32;20493;-58
2023/05/12 07:41:06;;;;;;;11.15;3.62;;;13.40;99.90;;;;;;7334715;32;20119;-59
2023/05/12 07:45:08;;;;;;;3.97;3.33;;;13.40;99.90;;;;;;7329181;32;20996;-59
2023/05/12 07:49:10;;;;;;;4.28;3.05;;;13.50;99.90;;;;;;7328008;32;20422;-59
2023/05/12 07:53:12;;;;;;;6.30;3.10;;;13.60;99.90;;;;;;7323857;32;20348;-59
2023/05/12 07:57:14;;;;;;;5.60;3.08;;;13.60;99.90;;;;;;7327102;32;20269;-59
2023/05/12 08:01:16;;;;;;;4.43;2.70;;;13.60;99.90;;;;;;7326399;32;20191;-60
2023/05/12 08:05:17;;;;;;;4.78;2.70;;;13.60;99.90;;;;;;7324408;32;20131;-59
2023/05/12 08:09:19;;;;;;;3.70;2.72;;;13.60;99.90;;;;;;7331202;32;20251;-59
2023/05/12 08:13:21;;;;;;;5.32;3.05;;;13.50;99.90;;;;;;7327226;32;20171;-59
2023/05/12 08:17:23;;;;;;;4.55;2.40;;;13.40;99.90;;;;;;7319419;32;20201;-59
2023/05/12 08:21:27;;;;;;;3.65;2.50;;;13.50;99.90;;;;;;7335429;32;20219;-59
2023/05/12 08:25:29;;;;;;;2.95;2.60;;;13.60;99.90;;;;;;7333901;32;20166;-59
2023/05/12 08:29:31;;;;;;;3.28;2.30;;;13.60;99.90;;;;;;7331806;32;20123;-59
2023/05/12 08:33:34;;;;;;;3.05;2.42;;;13.80;99.90;;;;;;7328469;32;20214;-58
2023/05/12 08:37:36;;;;;;;4.68;2.10;;;13.80;99.90;;;;;;7335741;32;20214;-59
2023/05/12 08:41:52;;;;;;;3.40;2.70;;;14.00;99.90;;;;;;7328197;32;20270;-59
2023/05/12 08:45:56;;;;;;;3.83;2.35;;;14.00;99.90;;;;;;7331211;32;20107;-59
2023/05/12 08:50:00;;;;;;;3.97;2.60;;;14.00;99.90;;;;;;7336291;32;20496;-58
2023/05/12 08:54:03;;;;;;;3.47;2.33;;;14.10;99.90;;;;;;7335108;32;20112;-58
2023/05/12 08:58:07;;;;;;;3.05;2.58;;;14.10;99.90;;;;;;7330305;32;20138;-58
2023/05/12 09:02:11;;;;;;;4.57;2.17;;;14.20;99.90;;;;;;7325146;32;20275;-58
2023/05/12 09:06:13;;;;;;;5.95;2.60;;;14.30;99.90;;;;;;7327461;32;20524;-59
2023/05/12 09:10:17;;;;;;;3.33;2.25;;;14.60;99.90;;;;;;7330274;32;20296;-59
2023/05/12 09:14:37;;;;;;;2.53;1.85;;;14.80;99.90;;;;;;7332110;32;20493;-59
2023/05/12 09:18:52;;;;;;;3.83;2.00;;;15.20;99.90;;;;;;7333134;32;20143;-58
2023/05/12 09:22:56;;;;;;;3.15;2.20;;;15.40;99.90;;;;;;7324615;32;20107;-58
2023/05/12 09:26:58;;;;;;;7.30;2.33;;;15.80;99.90;;;;;;7323432;32;20556;-56
2023/05/12 09:31:00;;;;;;;3.53;2.30;;;15.70;99.90;;;;;;7324428;32;20936;-58
2023/05/12 09:35:05;;;;;;;3.78;2.12;;;15.90;99.90;;;;;;7320103;32;20179;-57
2023/05/12 09:39:08;;;;;;;2.75;2.10;;;16.10;99.90;;;;;;7327380;32;20208;-59
2023/05/12 09:43:10;;;;;;;4.32;2.17;;;16.10;99.90;;;;;;7332956;32;20185;-59
2023/05/12 09:47:16;;;;;;;6.30;2.22;;;16.30;99.90;;;;;;7327434;32;20159;-58
2023/05/12 09:51:18;;;;;;;5.45;1.73;;;16.80;99.90;;;;;;7325080;32;20266;-59
2023/05/12 09:55:21;;;;;;;3.75;1.83;;;17.40;99.90;;;;;;7329550;32;20126;-59
2023/05/12 09:59:28;;;;;;;4.28;2.10;;;17.50;99.90;;;;;;7332048;32;20674;-58
2023/05/12 10:03:32;;;;;;;7.23;2.10;;;17.80;99.90;;;;;;7331591;32;20490;-59
2023/05/12 10:07:35;;;;;;;5.07;1.90;;;18.10;99.90;;;;;;7334638;32;20430;-61
2023/05/12 10:11:36;;;;;;;2.80;2.10;;;18.30;99.90;;;;;;7332816;32;20271;-59
2023/05/12 10:15:40;;;;;;;5.40;2.10;;;18.40;99.90;;;;;;7338786;32;20710;-58
2023/05/12 10:19:42;;;;;;;3.40;2.12;;;18.60;99.90;;;;;;7324353;32;20615;-60
2023/05/12 10:23:45;;;;;;;6.93;2.00;;;18.40;99.90;;;;;;7327460;32;20112;-58
2023/05/12 10:27:47;;;;;;;5.03;2.17;;;18.20;99.90;;;;;;7333404;32;20332;-58
2023/05/12 10:31:49;;;;;;;5.82;1.75;;;18.00;99.90;;;;;;7329550;32;20123;-59
2023/05/12 10:35:52;;;;;;;3.85;2.22;;;18.00;99.90;;;;;;7328211;32;20111;-59
2023/05/12 10:39:53;;;;;;;3.80;2.17;;;17.60;99.90;;;;;;7329596;32;20111;-59
2023/05/12 10:43:55;;;;;;;4.90;2.20;;;17.30;99.90;;;;;;7331319;32;20111;-59
2023/05/12 10:48:05;;;;;;;4.43;2.10;;;17.50;99.90;;;;;;7320472;32;20253;-59
2023/05/12 10:52:11;;;;;;;3.10;2.25;;;17.50;99.90;;;;;;7319983;32;20273;-59
2023/05/12 10:56:21;;;;;;;2.37;1.90;;;17.50;99.90;;;;;;7319585;32;20151;-59
2023/05/12 11:00:25;;;;;;;3.12;1.90;;;17.40;99.90;;;;;;7323615;32;20226;-57
2023/05/12 11:04:39;;;;;;;2.83;2.37;;;17.70;99.90;;;;;;7323631;32;20195;-58
2023/05/12 11:08:42;;;;;;;3.55;2.22;;;17.30;99.90;;;;;;7323339;32;20120;-58
2023/05/12 11:12:45;;;;;;;4.00;2.20;;;17.40;99.90;;;;;;7324362;32;20111;-60
2023/05/12 11:16:46;;;;;;;4.78;2.12;;;17.60;99.90;;;;;;7325743;32;20166;-59
2023/05/12 11:20:49;;;;;;;3.03;1.83;;;18.00;99.90;;;;;;7327555;32;20192;-59
2023/05/12 11:24:51;;;;;;;5.93;2.10;;;18.20;99.90;;;;;;7325274;32;20103;-59
2023/05/12 11:28:57;;;;;;;3.67;1.87;;;18.50;99.90;;;;;;7323046;32;20115;-59
2023/05/12 11:33:00;;;;;;;4.03;2.05;;;18.90;99.90;;;;;;7325999;32;20745;-61
2023/05/12 11:37:03;;;;;;;3.42;2.10;;;19.00;99.90;;;;;;7323718;32;20333;-58
2023/05/12 11:41:05;;;;;;;3.22;1.80;;;19.00;99.90;;;;;;7310038;32;20163;-58
2023/05/12 11:45:20;;;;;;;4.82;2.28;;;18.70;99.90;;;;;;7318595;32;20254;-58
2023/05/12 11:49:22;;;;;;;6.18;2.10;;;18.80;99.90;;;;;;7326415;32;20199;-59
2023/05/12 11:53:24;;;;;;;2.65;2.03;;;18.70;99.90;;;;;;7329121;32;20134;-57
2023/05/12 11:57:29;;;;;;;4.25;2.10;;;18.60;99.90;;;;;;7327667;32;20503;-57
2023/05/12 12:01:32;;;;;;;3.83;1.85;;;19.20;99.90;;;;;;7328196;32;20664;-58
2023/05/12 12:05:34;;;;;;;3.00;2.12;;;19.50;99.90;;;;;;7314287;32;20138;-57
2023/05/12 12:09:39;;;;;;;5.05;2.10;;;20.40;99.90;;;;;;7327918;32;20817;-55
2023/05/12 12:13:49;;;;;;;6.03;2.20;;;20.90;99.90;;;;;;7325281;32;20103;-58
2023/05/12 12:17:50;;;;;;;2.90;2.15;;;20.30;99.90;;;;;;7321993;32;20501;-58
2023/05/12 12:21:53;;;;;;;3.92;2.47;;;20.00;99.90;;;;;;7326010;32;20119;-58
2023/05/12 12:25:55;;;;;;;3.80;2.50;;;20.00;99.90;;;;;;7328374;32;20145;-58
2023/05/12 12:29:56;;;;;;;4.55;2.28;;;19.80;99.90;;;;;;7327758;32;20163;-58
2023/05/12 12:33:58;;;;;;;5.65;2.47;;;20.20;99.90;;;;;;7325105;32;20160;-59
2023/05/12 12:38:00;;;;;;;8.73;4.53;;;20.40;99.90;;;;;;7322493;32;20242;-58
2023/05/12 12:42:02;;;;;;;5.53;3.00;;;20.40;99.90;;;;;;7323532;32;20131;-58
2023/05/12 12:46:03;;;;;;;7.07;2.58;;;20.30;99.90;;;;;;7326093;32;20188;-58
2023/05/12 12:50:08;;;;;;;4.37;2.08;;;20.10;99.90;;;;;;7325970;32;20216;-60
2023/05/12 12:54:10;;;;;;;4.10;2.72;;;20.70;99.90;;;;;;7330684;32;20196;-58
2023/05/12 12:58:12;;;;;;;5.30;2.65;;;20.60;99.90;;;;;;7320856;32;20141;-58
2023/05/12 13:02:14;;;;;;;6.32;3.30;;;19.90;99.90;;;;;;7325921;32;20141;-58
2023/05/12 13:06:15;;;;;;;3.12;2.65;;;20.00;99.90;;;;;;7327450;32;20139;-58
2023/05/12 13:10:17;;;;;;;3.75;2.55;;;19.80;99.90;;;;;;7326607;32;20257;-58
2023/05/12 13:14:20;;;;;;;3.35;2.37;;;19.60;99.90;;;;;;7320983;32;20133;-59
2023/05/12 13:18:21;;;;;;;4.15;2.37;;;19.50;99.90;;;;;;7326148;32;20112;-59
2023/05/12 13:22:26;;;;;;;5.93;3.10;;;19.40;99.90;;;;;;7326350;32;20150;-58
2023/05/12 13:26:27;;;;;;;3.95;2.95;;;19.40;99.90;;;;;;7326250;32;21127;-59
2023/05/12 13:30:29;;;;;;;8.38;3.45;;;19.10;99.90;;;;;;7329165;32;20208;-57
2023/05/12 13:34:31;;;;;;;5.12;3.33;;;18.60;99.90;;;;;;7326236;32;20266;-58
2023/05/12 13:38:33;;;;;;;7.03;3.20;;;18.20;99.90;;;;;;7329025;32;20127;-57
2023/05/12 13:42:34;;;;;;;4.82;4.00;;;17.90;99.90;;;;;;7325287;32;20522;-58
2023/05/12 13:46:36;;;;;;;4.47;3.72;;;17.50;99.90;;;;;;7317940;32;20202;-58
2023/05/12 13:50:38;;;;;;;4.95;3.60;;;17.30;99.90;;;;;;7323530;32;20111;-58
2023/05/12 13:54:40;;;;;;;5.65;3.95;;;17.30;99.90;;;;;;7306879;32;20240;-58
2023/05/12 13:58:42;;;;;;;4.95;3.92;;;17.50;99.90;;;;;;7321088;32;20134;-58
2023/05/12 14:02:44;;;;;;;3.80;3.40;;;17.70;99.90;;;;;;7322314;32;20190;-57
2023/05/12 14:06:45;;;;;;;4.28;3.67;;;17.90;99.90;;;;;;7321283;32;21117;-58
2023/05/12 14:10:47;;;;;;;3.47;3.12;;;18.10;99.90;;;;;;7331583;32;20139;-61
2023/05/12 14:14:49;;;;;;;3.78;3.20;;;18.30;99.90;;;;;;7314768;32;20249;-60
2023/05/12 14:18:51;;;;;;;6.12;3.60;;;18.30;99.90;;;;;;7314851;32;20501;-59
2023/05/12 14:22:52;;;;;;;5.85;3.40;;;18.30;99.90;;;;;;7314863;32;20644;-61
2023/05/12 14:26:54;;;;;;;6.57;3.22;;;18.30;99.90;;;;;;7320856;32;20310;-60
2023/05/12 14:30:56;;;;;;;3.50;3.20;;;18.10;99.90;;;;;;7318730;32;20198;-59
2023/05/12 14:34:57;;;;;;;4.07;3.55;;;18.00;99.90;;;;;;7322675;32;20179;-58
2023/05/12 14:38:59;;;;;;;8.18;3.50;;;17.90;99.90;;;;;;7320956;32;20318;-57
2023/05/12 14:43:02;;;;;;;7.97;3.28;;;17.90;99.90;;;;;;7326419;32;20120;-57
2023/05/12 14:47:04;;;;;;;5.82;3.35;;;17.70;99.90;;;;;;7332856;32;20135;-58
2023/05/12 14:51:08;;;;;;;3.53;3.10;;;17.80;99.90;;;;;;7330647;32;21516;-58
2023/05/12 14:55:10;;;;;;;4.43;3.20;;;17.70;99.90;;;;;;7329210;32;20170;-57
2023/05/12 14:59:12;;;;;;;3.70;2.50;;;17.80;99.90;;;;;;7331766;32;20211;-57
2023/05/12 15:03:15;;;;;;;6.22;2.80;;;17.80;99.90;;;;;;7330189;32;20204;-57
2023/05/12 15:07:17;;;;;;;4.12;2.50;;;18.00;99.90;;;;;;7323759;32;20120;-58
2023/05/12 15:11:18;;;;;;;4.25;2.28;;;18.50;99.90;;;;;;7324816;32;20230;-58
2023/05/12 15:15:20;;;;;;;3.58;2.28;;;18.90;99.90;;;;;;7323295;32;20231;-58
2023/05/12 15:19:22;;;;;;;6.00;2.53;;;19.10;99.90;;;;;;7325986;32;20120;-57
2023/05/12 15:23:24;;;;;;;3.10;2.05;;;18.90;99.90;;;;;;7327588;32;20131;-56
2023/05/12 15:27:26;;;;;;;1.62;1.40;;;18.60;99.90;;;;;;7332126;32;20346;-56
2023/05/12 15:31:28;;;;;;;2.40;1.77;;;18.20;99.90;;;;;;7329873;32;20195;-57
2023/05/12 15:35:31;;;;;;;3.55;1.98;;;17.90;99.90;;;;;;7333632;32;20473;-56
2023/05/12 15:39:33;;;;;;;4.20;2.00;;;17.70;99.90;;;;;;7338805;32;20134;-56
2023/05/12 15:43:37;;;;;;;3.42;2.15;;;17.30;99.90;;;;;;7331120;32;20226;-57
2023/05/12 15:47:39;;;;;;;3.12;2.00;;;17.00;99.90;;;;;;7328164;32;20297;-57
2023/05/12 15:51:41;;;;;;;4.68;2.78;;;16.40;99.90;;;;;;7325982;32;20580;-57
2023/05/12 15:55:43;;;;;;;4.87;3.22;;;15.90;99.90;;;;;;7328923;32;20139;-57
2023/05/12 15:59:45;;;;;;;5.32;2.85;;;15.30;99.90;;;;;;7330074;32;20131;-57
2023/05/12 16:03:49;;;;;;;6.07;3.30;;;15.30;99.90;;;;;;7308965;32;20140;-57
2023/05/12 16:07:53;;;;;;;4.75;3.15;;;15.30;99.90;;;;;;7325773;32;20190;-58
2023/05/12 16:11:56;;;;;;;4.28;3.40;;;15.30;99.90;;;;;;7325316;32;20213;-58
2023/05/12 16:15:57;;;;;;;7.30;3.55;;;15.30;99.90;;;;;;7328339;32;20138;-58
2023/05/12 16:20:00;;;;;;;4.07;3.30;;;15.40;99.90;;;;;;7322301;32;20281;-58
2023/05/12 16:24:02;;;;;;;5.43;3.35;;;15.50;99.90;;;;;;7324874;32;20204;-58
2023/05/12 16:28:04;;;;;;;7.50;3.47;;;15.60;99.90;;;;;;7326722;32;20178;-57
2023/05/12 16:32:06;;;;;;;5.85;3.33;;;15.60;99.90;;;;;;7330139;32;20171;-57
2023/05/12 16:36:08;;;;;;;5.57;3.30;;;15.70;99.90;;;;;;7330331;32;20127;-57
2023/05/12 16:40:09;;;;;;;5.43;2.80;;;15.80;99.90;;;;;;7327438;32;20245;-57
2023/05/12 16:44:11;;;;;;;5.32;3.33;;;15.80;99.90;;;;;;7329115;32;20187;-58
2023/05/12 16:48:13;;;;;;;3.70;3.10;;;15.80;99.90;;;;;;7337702;32;20522;-58
2023/05/12 16:52:14;;;;;;;3.62;3.22;;;15.80;99.90;;;;;;7338626;32;20622;-58
2023/05/12 16:56:16;;;;;;;4.95;3.33;;;15.70;99.90;;;;;;7337171;32;20300;-58
2023/05/12 17:00:18;;;;;;;5.82;3.40;;;15.80;99.90;;;;;;7346435;32;20910;-58
2023/05/12 17:04:20;;;;;;;4.95;3.28;;;15.80;99.90;;;;;;7330464;32;20112;-58
2023/05/12 17:08:22;;;;;;;4.00;3.33;;;15.90;99.90;;;;;;7335131;32;20111;-58
2023/05/12 17:12:23;;;;;;;6.12;2.95;;;15.80;99.90;;;;;;7338658;32;20164;-58
2023/05/12 17:16:25;;;;;;;4.35;3.12;;;15.80;99.90;;;;;;7335437;32;20107;-58
2023/05/12 17:20:27;;;;;;;5.30;3.10;;;15.80;99.90;;;;;;7340839;32;20196;-60
2023/05/12 17:24:29;;;;;;;3.53;2.85;;;15.80;99.90;;;;;;7343412;32;20206;-58
2023/05/12 17:28:31;;;;;;;5.55;3.30;;;15.80;99.90;;;;;;7338306;32;20743;-58
2023/05/12 17:32:32;;;;;;;6.35;3.08;;;15.80;99.90;;;;;;7337011;32;20108;-58
2023/05/12 17:36:34;;;;;;;4.85;3.20;;;15.70;99.90;;;;;;7335326;32;20196;-57
2023/05/12 17:40:36;;;;;;;4.80;3.17;;;15.70;99.90;;;;;;7331622;32;20135;-58
2023/05/12 17:44:38;;;;;;;7.80;3.45;;;15.70;99.90;;;;;;7338861;32;20196;-58
2023/05/12 17:48:39;;;;;;;8.07;4.12;;;15.80;99.90;;;;;;7340307;32;20556;-58
2023/05/12 17:52:42;;;;;;;7.30;3.78;;;15.70;99.90;;;;;;7332986;32;20175;-58
2023/05/12 17:56:44;;;;;;;7.03;3.92;;;15.60;99.90;;;;;;7322316;32;20112;-58
2023/05/12 18:00:46;;;;;;;5.30;3.92;;;15.50;99.90;;;;;;7342085;32;20202;-58
2023/05/12 18:04:47;;;;;;;5.07;3.90;;;15.40;99.90;;;;;;7338704;32;20469;-58
2023/05/12 18:08:49;;;;;;;4.05;3.65;;;15.30;99.90;;;;;;7340432;32;20112;-58
2023/05/12 18:12:51;;;;;;;5.15;3.50;;;15.30;99.90;;;;;;7337478;32;20116;-59
2023/05/12 18:16:55;;;;;;;6.87;3.53;;;15.30;99.90;;;;;;7340755;32;20115;-59
2023/05/12 18:20:58;;;;;;;5.50;3.40;;;15.10;99.90;;;;;;7342272;32;20134;-59
2023/05/12 18:25:00;;;;;;;6.85;3.70;;;15.10;99.90;;;;;;7341135;32;20337;-59
2023/05/12 18:29:01;;;;;;;6.10;3.80;;;15.10;99.90;;;;;;7344123;32;20125;-58
2023/05/12 18:33:03;;;;;;;6.35;3.92;;;15.00;99.90;;;;;;7342530;32;20703;-58
2023/05/12 18:37:06;;;;;;;5.10;3.85;;;14.90;99.90;;;;;;7342644;32;20125;-58
2023/05/12 18:41:08;;;;;;;6.03;4.10;;;15.00;99.90;;;;;;7342198;32;20166;-59
2023/05/12 18:45:10;;;;;;;6.60;4.62;;;14.80;99.90;;;;;;7342968;32;20222;-59
2023/05/12 18:49:11;;;;;;;5.97;4.40;;;14.70;99.90;;;;;;7340787;32;20222;-59
2023/05/12 18:53:13;;;;;;;7.37;4.40;;;14.60;99.90;;;;;;7347248;32;20200;-58
2023/05/12 18:57:15;;;;;;;7.68;4.82;;;14.40;99.90;;;;;;7339784;32;20112;-59
2023/05/12 19:01:17;;;;;;;10.27;4.93;;;14.30;99.90;;;;;;7338268;32;20735;-59
2023/05/12 19:05:19;;;;;;;14.35;5.28;;;14.10;99.90;;;;;;7337948;32;20454;-58
2023/05/12 19:09:21;;;;;;;6.12;4.47;;;14.00;99.90;;;;;;7337426;32;20810;-58
2023/05/12 19:13:23;;;;;;;8.52;5.15;;;13.90;99.90;;;;;;7344294;32;20493;-59
2023/05/12 19:17:24;;;;;;;8.65;5.40;;;13.60;99.90;;;;;;7343760;32;20833;-58
2023/05/12 19:21:27;;;;;;;6.45;5.00;;;13.60;99.90;;;;;;7340063;32;20137;-59
2023/05/12 19:25:28;;;;;;;9.80;5.50;;;13.40;99.90;;;;;;7340753;32;20221;-58
2023/05/12 19:29:30;;;;;;;9.95;5.40;;;13.30;99.90;;;;;;7343740;32;20895;-57
2023/05/12 19:33:33;;;;;;;11.68;5.85;;;13.20;99.90;;;;;;7337955;32;20593;-56
2023/05/12 19:37:35;;;;;;;8.02;5.43;;;13.00;99.90;;;;;;7339182;32;20786;-58
2023/05/12 19:41:38;;;;;;;8.65;5.62;;;12.90;99.90;;;;;;7340952;32;20623;-57
2023/05/12 19:45:40;;;;;;;7.97;5.62;;;12.80;99.90;;;;;;7341921;32;20226;-57
2023/05/12 19:49:41;;;;;;;7.97;5.95;;;12.70;99.90;;;;;;7339737;32;20134;-56
2023/05/12 19:53:43;;;;;;;7.75;6.18;;;12.60;99.90;;;;;;7342550;32;20510;-57
2023/05/12 19:57:45;;;;;;;6.70;6.00;;;12.50;99.90;;;;;;7340995;32;20145;-56
2023/05/12 20:01:48;;;;;;;9.07;6.60;;;12.50;99.90;;;;;;7341689;32;20132;-57
2023/05/12 20:05:49;;;;;;;9.10;6.82;;;12.40;99.90;;;;;;7320466;32;20251;-56
2023/05/12 20:09:52;;;;;;;10.75;6.50;;;12.30;99.90;;;;;;7347942;32;20497;-56
2023/05/12 20:13:53;;;;;;;8.23;6.90;;;12.30;99.90;;;;;;7337290;32;20389;-56
2023/05/12 20:17:55;;;;;;;15.55;7.28;;;12.20;99.90;;;;;;7339038;32;20526;-57
2023/05/12 20:21:57;;;;;;;12.77;7.37;;;12.10;99.90;;;;;;7342033;32;20115;-57
2023/05/12 20:25:59;;;;;;;10.20;7.80;;;12.00;99.90;;;;;;7340522;32;20556;-57
2023/05/12 20:30:00;;;;;;;9.40;6.93;;;11.90;99.90;;;;;;7326140;32;20499;-56
2023/05/12 20:34:03;;;;;;;11.35;7.85;;;11.80;99.90;;;;;;7339301;32;20129;-57
2023/05/12 20:38:05;;;;;;;12.80;7.80;;;11.70;99.90;;;;;;7334711;32;20129;-57
2023/05/12 20:42:10;;;;;;;9.30;6.55;;;11.70;99.90;;;;;;7339149;32;20115;-56
2023/05/12 20:46:12;;;;;;;8.82;7.47;;;11.60;99.90;;;;;;7337452;32;20137;-58
2023/05/12 20:50:14;;;;;;;8.85;7.60;;;11.50;99.90;;;;;;7343013;32;20135;-57
2023/05/12 20:54:16;;;;;;;17.27;8.20;;;11.50;99.90;;;;;;7342091;32;20112;-56
2023/05/12 20:58:17;;;;;;;13.85;7.75;;;11.50;99.90;;;;;;7339668;32;20115;-57